Ostrica, Louisiana
Current Conditions -  °F | °C
As of 2:51 PM on Saturday 22 Nov 2014 (Local Time) from KBVE Reporting Station
Clear Clear  
Wind Chill: 67°   Ceiling: Unl
Heat Index: 67°   Visibility: 9mi
Dew Point: 64°   Wind: 10mph
Humidity: 90%   Direction: 90°E
Pressure: 30.05"   Gusts: NA
Location:  29.2996°N, 89.4367°W
Report Text: KBVE 222051Z AUTO 09009KT 9SM CLR 19/18 A3005 RMK AO2 SLP175 T01940178 56035
Loading
Personal Weather Stations






























Interactive Weather Map New forecast layout! Learn more

10-Day Weather Forecast

Advertisements
Track Severe Weather on mobile